Aviation Digital Data Service (ADDS)

Output produced by METARs form (1504 UTC 15 October 2018)
found at http://aviationweather.gov/metar/data/
 
KUTS 151453Z AUTO 34008G17KT 5SM BR OVC006 12/11 A3012 RMK AO2 SLP198 60000 T01170111 53019
KUTS 151333Z 1514/1612 34012G22KT P6SM VCSH OVC006 
     TEMPO 1521/1524 4SM -SHRA OVC005 
     FM160000 36012KT 6SM -SHRA OVC008 
     PROB30 1600/1606 2SM TS OVC005CB 
     FM160600 01007KT 6SM -SHRA OVC006